Time,TemperatureF,DewpointF,PressureIn,WindDirection,WindDirectionDegrees,WindSpeedMPH,WindSpeedGustMPH,Humidity,HourlyPrecipIn,Conditions,Clouds,dailyrainin,SoftwareType,DateUTC
2014-02-05 00:23:00,44.0,37.0,30.22,ENE,59,0.0,6.0,76,0.00,,,-99.99,,2014-02-05 06:23:00,
2014-02-05 00:52:00,42.0,35.0,30.24,East,82,0.0,3.0,77,0.00,,,-99.99,,2014-02-05 06:52:00,
2014-02-05 01:22:00,42.0,35.0,30.25,ENE,67,1.0,6.0,75,0.00,,,-99.99,,2014-02-05 07:22:00,
2014-02-05 01:42:00,42.0,35.0,30.25,ENE,67,1.0,6.0,75,0.00,,,-99.99,,2014-02-05 07:42:00,
2014-02-05 01:52:00,42.0,35.0,30.25,ENE,67,1.0,6.0,75,0.00,,,-99.99,,2014-02-05 07:52:00,
2014-02-05 02:11:00,39.0,33.0,30.27,NNE,25,2.0,11.0,79,0.00,,,-99.99,,2014-02-05 08:11:00,
2014-02-05 02:22:00,39.0,33.0,30.27,NNE,25,2.0,11.0,79,0.00,,,-99.99,,2014-02-05 08:22:00,
2014-02-05 02:42:00,38.0,33.0,30.29,NE,47,4.0,9.0,81,0.00,,,-99.99,,2014-02-05 08:42:00,
2014-02-05 02:52:00,38.0,33.0,30.29,NE,47,4.0,9.0,81,0.00,,,-99.99,,2014-02-05 08:52:00,
2014-02-05 03:12:00,37.0,31.0,30.30,ENE,61,2.0,7.0,79,0.00,,,-99.99,,2014-02-05 09:12:00,
2014-02-05 03:22:00,37.0,31.0,30.30,ENE,61,2.0,7.0,79,0.00,,,-99.99,,2014-02-05 09:22:00,
2014-02-05 03:43:00,36.0,30.0,30.29,NNE,29,6.0,10.0,80,0.00,,,-99.99,,2014-02-05 09:43:00,
2014-02-05 03:54:00,36.0,30.0,30.29,NNE,29,6.0,10.0,80,0.00,,,-99.99,,2014-02-05 09:54:00,
2014-02-05 04:23:00,35.0,29.0,30.32,NNE,22,4.0,11.0,80,0.00,,,-99.99,,2014-02-05 10:23:00,
2014-02-05 04:52:00,34.0,28.0,30.34,NE,43,10.0,17.0,80,0.00,,,-99.99,,2014-02-05 10:52:00,
2014-02-05 05:02:00,34.0,28.0,30.34,NE,43,10.0,17.0,80,0.00,,,-99.99,,2014-02-05 11:02:00,
2014-02-05 05:12:00,34.0,28.0,30.34,NE,43,10.0,17.0,80,0.00,,,-99.99,,2014-02-05 11:12:00,
2014-02-05 05:22:00,34.0,28.0,30.34,NE,43,10.0,17.0,80,0.00,,,-99.99,,2014-02-05 11:22:00,
2014-02-05 05:43:00,31.0,24.0,30.40,North,350,6.0,9.0,76,0.00,,,-99.99,,2014-02-05 11:43:00,
2014-02-05 05:53:00,31.0,24.0,30.40,North,350,6.0,9.0,76,0.00,,,-99.99,,2014-02-05 11:53:00,
2014-02-05 06:02:00,31.0,24.0,30.40,North,350,6.0,9.0,76,0.00,,,-99.99,,2014-02-05 12:02:00,
2014-02-05 06:12:00,31.0,24.0,30.40,North,350,6.0,9.0,76,0.00,,,-99.99,,2014-02-05 12:12:00,
2014-02-05 08:52:00,28.0,20.0,30.55,NNE,18,8.0,18.0,73,0.00,,,-99.99,,2014-02-05 14:52:00,
2014-02-05 09:02:00,28.0,20.0,30.55,NNE,18,8.0,18.0,73,0.00,,,-99.99,,2014-02-05 15:02:00,
2014-02-05 09:22:00,29.0,21.0,30.57,NE,51,4.0,16.0,73,0.00,,,-99.99,,2014-02-05 15:22:00,
2014-02-05 09:34:00,29.0,21.0,30.57,NE,51,4.0,16.0,73,0.00,,,-99.99,,2014-02-05 15:34:00,
2014-02-05 09:53:00,29.0,21.0,30.58,North,359,7.0,16.0,71,0.00,,,-99.99,,2014-02-05 15:53:00,
2014-02-05 10:13:00,29.0,20.0,30.62,ENE,71,6.0,15.0,69,0.00,,,-99.99,,2014-02-05 16:13:00,
2014-02-05 10:23:00,30.0,22.0,30.60,NE,37,12.0,14.0,71,0.00,,,-99.99,,2014-02-05 16:23:00,
2014-02-05 10:43:00,29.0,20.0,30.62,ENE,71,6.0,15.0,69,0.00,,,-99.99,,2014-02-05 16:43:00,
2014-02-05 10:53:00,29.0,20.0,30.62,ENE,71,6.0,15.0,69,0.00,,,-99.99,,2014-02-05 16:53:00,
2014-02-05 11:03:00,29.0,20.0,30.62,ENE,71,6.0,15.0,69,0.00,,,-99.99,,2014-02-05 17:03:00,
2014-02-05 11:42:00,30.0,19.0,30.62,North,6,8.0,12.0,64,0.00,,,-99.99,,2014-02-05 17:42:00,
2014-02-05 11:52:00,30.0,19.0,30.62,North,6,8.0,12.0,64,0.00,,,-99.99,,2014-02-05 17:52:00,
2014-02-05 12:02:00,30.0,19.0,30.62,North,6,8.0,12.0,64,0.00,,,-99.99,,2014-02-05 18:02:00,
2014-02-05 12:22:00,32.0,20.0,30.59,NNE,15,8.0,13.0,61,0.00,,,-99.99,,2014-02-05 18:22:00,
2014-02-05 12:43:00,32.0,19.0,30.58,NE,51,13.0,15.0,59,0.00,,,-99.99,,2014-02-05 18:43:00,
2014-02-05 12:52:00,32.0,19.0,30.58,NE,51,13.0,15.0,59,0.00,,,-99.99,,2014-02-05 18:52:00,
2014-02-05 13:11:00,33.0,20.0,30.56,North,11,5.0,19.0,59,0.00,,,-99.99,,2014-02-05 19:11:00,
2014-02-05 13:22:00,33.0,20.0,30.56,North,11,5.0,19.0,59,0.00,,,-99.99,,2014-02-05 19:22:00,
2014-02-05 13:52:00,34.0,20.0,30.53,NNW,347,11.0,18.0,57,0.00,,,-99.99,,2014-02-05 19:52:00,
2014-02-05 14:02:00,34.0,20.0,30.53,NNW,347,11.0,18.0,57,0.00,,,-99.99,,2014-02-05 20:02:00,
2014-02-05 14:22:00,34.0,20.0,30.50,North,1,11.0,16.0,55,0.00,,,-99.99,,2014-02-05 20:22:00,
2014-02-05 14:32:00,34.0,20.0,30.50,North,1,11.0,16.0,55,0.00,,,-99.99,,2014-02-05 20:32:00,
2014-02-05 14:53:00,35.0,20.0,30.51,NE,53,7.0,13.0,53,0.00,,,-99.99,,2014-02-05 20:53:00,
2014-02-05 15:02:00,35.0,20.0,30.51,NE,53,7.0,13.0,53,0.00,,,-99.99,,2014-02-05 21:02:00,
2014-02-05 15:22:00,34.0,18.0,30.50,NNE,30,5.0,16.0,52,0.00,,,-99.99,,2014-02-05 21:22:00,
2014-02-05 15:33:00,34.0,18.0,30.50,NNE,30,5.0,16.0,52,0.00,,,-99.99,,2014-02-05 21:33:00,
2014-02-05 15:53:00,34.0,18.0,30.50,NNE,30,5.0,16.0,52,0.00,,,-99.99,,2014-02-05 21:53:00,
2014-02-05 16:23:00,33.0,18.0,30.50,NNE,23,9.0,15.0,53,0.00,,,-99.99,,2014-02-05 22:23:00,
2014-02-05 16:53:00,32.0,17.0,30.50,NE,43,12.0,15.0,53,0.00,,,-99.99,,2014-02-05 22:53:00,
2014-02-05 17:02:00,32.0,17.0,30.50,NE,43,12.0,15.0,53,0.00,,,-99.99,,2014-02-05 23:02:00,
2014-02-05 17:20:00,30.0,16.0,30.51,ENE,57,5.0,15.0,55,0.00,,,-99.99,,2014-02-05 23:20:00,
2014-02-05 17:22:00,31.0,16.0,30.50,NNE,33,3.0,14.0,54,0.00,,,-99.99,,2014-02-05 23:22:00,
2014-02-05 17:43:00,30.0,16.0,30.51,ENE,57,5.0,15.0,55,0.00,,,-99.99,,2014-02-05 23:43:00,
2014-02-05 17:53:00,30.0,16.0,30.51,ENE,57,5.0,15.0,55,0.00,,,-99.99,,2014-02-05 23:53:00,
2014-02-05 18:02:00,30.0,16.0,30.51,ENE,57,5.0,15.0,55,0.00,,,-99.99,,2014-02-06 00:02:00,
2014-02-05 18:12:00,30.0,16.0,30.51,ENE,57,5.0,15.0,55,0.00,,,-99.99,,2014-02-06 00:12:00,
2014-02-05 19:22:00,26.0,14.0,30.55,NE,53,7.0,11.0,60,0.00,,,-99.99,,2014-02-06 01:22:00,
2014-02-05 19:32:00,26.0,14.0,30.55,NE,53,7.0,11.0,60,0.00,,,-99.99,,2014-02-06 01:32:00,
2014-02-05 19:52:00,26.0,14.0,30.55,NE,53,7.0,11.0,60,0.00,,,-99.99,,2014-02-06 01:52:00,
2014-02-05 21:11:00,25.0,14.0,30.59,NE,46,1.0,10.0,63,0.00,,,-99.99,,2014-02-06 03:11:00,
2014-02-05 21:22:00,25.0,14.0,30.59,NE,46,1.0,10.0,63,0.00,,,-99.99,,2014-02-06 03:22:00,